Forside
METAR-TAF:

METAR-TAF

Lufthavne :

Ankeny Regional Airport

Ankeny, Iowa, USA

Breddekreds: 41-41-24N, længdekreds: 093-33-57W, højde: 275 m

Aktuelle vejr

Denne rapport blev lavet for 15 minutter siden, kl. 19:15 UTC
Vind 11 kt fra sydsydvest, varierende mellem sydsydøst og sydvest
Temperatur 11°C
Fugtighed 40%
Tryk 1017 hPa
Sigt: 16.1 km
skyfri

METAR: KIKV 221915Z AUTO 20011KT 160V220 10SM CLR 11/M02 A3004 RMK AO2

Tid: 13:30 (19:30 UTC)


TAF: fraværende

Vejrobservationer og prognoser fra mere end 4000 lufthavne (METAR og TAF).

De gule og røde prikker repræsenterer de meteorologiske stationer.

Flyt musen over at se navnet på stationen.

Så klik over at se vejr observationer og prognoser.

At skifte det kort: Klik på de grønne knapper med et sort kors for at zoome ind; på den grønne knap med en bindestreg for at zoome ud; eller på de grønne pile for tilstødende kort.


METAR-TAF: